Wetterdaten: Woche 14.08.17 - 20.08.17 (KW33)
Datum Zeit Temp. A. Pool Temp. Feuchte A. Luftdruck Regen Wind Richtung Sonnenschein ET UV Solar Taupunkt Windchill Windben Empfang
14.08.2017 00:00 14,7 C 20,6 C 92 % 1020,5 hPa 0,0 l/m 3,4 km/h (1 Bft) S-SW 0,00 h 0,000 mm 0,0 UV-I 0 W/m 13,4 C 14,7 C 5,2 km/h (1 Bft) 98,42 %
14.08.2017 01:00 14,1 C 20,6 C 92 % 1020,6 hPa 0,0 l/m 2,0 km/h (1 Bft) S-SW 0,00 h 0,000 mm 0,0 UV-I 0 W/m 12,9 C 14,1 C 4,2 km/h (1 Bft) 98,56 %
14.08.2017 02:00 13,6 C 20,0 C 93 % 1020,5 hPa 0,0 l/m 1,8 km/h (1 Bft) NO 0,00 h 0,000 mm 0,0 UV-I 0 W/m 12,4 C 13,6 C 3,5 km/h (1 Bft) 97,08 %
14.08.2017 03:00 12,7 C 20,0 C 94 % 1020,5 hPa 0,0 l/m 0,9 km/h (0 Bft) NO 0,00 h 0,000 mm 0,0 UV-I 0 W/m 11,8 C 12,7 C 2,0 km/h (1 Bft) 98,61 %
14.08.2017 04:00 12,2 C 20,0 C 95 % 1020,5 hPa 0,0 l/m 0,4 km/h (0 Bft) O-NO 0,00 h 0,000 mm 0,0 UV-I 0 W/m 11,4 C 12,2 C 1,1 km/h (1 Bft) 99,11 %
14.08.2017 05:00 11,7 C 20,0 C 96 % 1020,5 hPa 0,0 l/m 0,2 km/h (0 Bft) O-NO 0,00 h 0,000 mm 0,0 UV-I 6 W/m 11,1 C 11,7 C 0,5 km/h (0 Bft) 96,92 %
14.08.2017 06:00 11,6 C 20,0 C 96 % 1020,7 hPa 0,0 l/m 0,3 km/h (0 Bft) O-NO 0,87 h 0,000 mm 0,0 UV-I 54 W/m 11,0 C 11,6 C 0,9 km/h (0 Bft) 98,96 %
14.08.2017 07:00 13,3 C 20,0 C 96 % 1020,7 hPa 0,0 l/m 3,0 km/h (1 Bft) NO 1,00 h 0,025 mm 0,5 UV-I 189 W/m 12,7 C 13,3 C 5,0 km/h (1 Bft) 98,29 %
14.08.2017 08:00 16,0 C 20,0 C 90 % 1020,8 hPa 0,0 l/m 6,8 km/h (2 Bft) O-NO 1,00 h 0,102 mm 1,0 UV-I 365 W/m 14,3 C 15,4 C 10,5 km/h (2 Bft) 97,40 %
14.08.2017 09:00 18,1 C 20,0 C 85 % 1020,8 hPa 0,0 l/m 9,4 km/h (2 Bft) O-NO 1,00 h 0,203 mm 2,2 UV-I 532 W/m 15,5 C 16,8 C 14,6 km/h (3 Bft) 97,37 %
14.08.2017 10:00 20,2 C 20,2 C 79 % 1020,5 hPa 0,0 l/m 12,9 km/h (3 Bft) NO 1,00 h 0,305 mm 3,6 UV-I 669 W/m 16,4 C 18,1 C 19,4 km/h (3 Bft) 99,15 %
14.08.2017 11:00 21,8 C 20,6 C 73 % 1020,4 hPa 0,0 l/m 14,6 km/h (3 Bft) NO 1,00 h 0,432 mm 4,8 UV-I 768 W/m 16,7 C 19,6 C 21,7 km/h (4 Bft) 98,45 %
14.08.2017 12:00 23,3 C 20,8 C 66 % 1020,0 hPa 0,0 l/m 16,1 km/h (3 Bft) NO 1,00 h 0,508 mm 5,7 UV-I 826 W/m 16,4 C 21,0 C 23,2 km/h (4 Bft) 96,54 %
14.08.2017 13:00 24,4 C 21,1 C 58 % 1019,5 hPa 0,0 l/m 16,5 km/h (3 Bft) O-NO 1,00 h 0,584 mm 5,9 UV-I 833 W/m 15,7 C 22,4 C 23,4 km/h (4 Bft) 98,30 %
14.08.2017 14:00 25,3 C 21,7 C 53 % 1019,0 hPa 0,0 l/m 16,3 km/h (3 Bft) NO 1,00 h 0,610 mm 5,2 UV-I 785 W/m 15,1 C 23,5 C 23,2 km/h (4 Bft) 98,60 %
14.08.2017 15:00 25,9 C 21,9 C 47 % 1018,6 hPa 0,0 l/m 14,9 km/h (3 Bft) O-NO 1,00 h 0,609 mm 4,0 UV-I 689 W/m 13,7 C 24,4 C 21,4 km/h (4 Bft) 98,64 %
14.08.2017 16:00 26,2 C 22,2 C 45 % 1018,2 hPa 0,0 l/m 13,4 km/h (3 Bft) NO 1,00 h 0,559 mm 2,6 UV-I 555 W/m 13,3 C 25,0 C 19,4 km/h (3 Bft) 96,56 %
14.08.2017 17:00 26,0 C 22,2 C 44 % 1018,0 hPa 0,0 l/m 12,4 km/h (3 Bft) NO 1,00 h 0,483 mm 1,4 UV-I 392 W/m 12,7 C 24,9 C 19,0 km/h (3 Bft) 98,40 %
14.08.2017 18:00 25,5 C 22,2 C 46 % 1018,0 hPa 0,0 l/m 11,0 km/h (2 Bft) NO 0,97 h 0,355 mm 0,6 UV-I 210 W/m 12,9 C 24,6 C 16,5 km/h (3 Bft) 98,21 %
14.08.2017 19:00 23,9 C 22,2 C 54 % 1017,9 hPa 0,0 l/m 6,2 km/h (2 Bft) O-NO 0,63 h 0,229 mm 0,0 UV-I 66 W/m 13,9 C 23,8 C 10,1 km/h (2 Bft) 99,43 %
14.08.2017 20:00 21,8 C 22,2 C 64 % 1018,2 hPa 0,0 l/m 6,6 km/h (2 Bft) O 0,10 h 0,101 mm 0,0 UV-I 9 W/m 14,7 C 21,3 C 9,7 km/h (2 Bft) 96,39 %
14.08.2017 21:00 20,8 C 22,2 C 70 % 1018,4 hPa 0,0 l/m 8,8 km/h (2 Bft) O-NO 0,00 h 0,051 mm 0,0 UV-I 0 W/m 15,1 C 19,9 C 13,6 km/h (3 Bft) 98,33 %
14.08.2017 22:00 19,5 C 22,0 C 76 % 1018,6 hPa 0,0 l/m 4,1 km/h (1 Bft) O-NO 0,00 h 0,051 mm 0,0 UV-I 0 W/m 15,0 C 19,4 C 6,3 km/h (2 Bft) 97,95 %
14.08.2017 23:00 18,0 C 21,7 C 81 % 1018,5 hPa 0,0 l/m 3,8 km/h (1 Bft) NO 0,00 h 0,025 mm 0,0 UV-I 0 W/m 14,6 C 18,0 C 6,0 km/h (2 Bft) 98,96 %
15.08.2017 00:00 17,7 C 21,7 C 80 % 1018,4 hPa 0,0 l/m 4,8 km/h (1 Bft) O-NO 0,00 h 0,000 mm 0,0 UV-I 0 W/m 14,3 C 17,7 C 7,0 km/h (2 Bft) 95,64 %
15.08.2017 01:00 17,5 C 21,7 C 79 % 1018,3 hPa 0,0 l/m 4,5 km/h (1 Bft) O-NO 0,00 h 0,025 mm 0,0 UV-I 0 W/m 13,8 C 17,5 C 7,1 km/h (2 Bft) 98,81 %
15.08.2017 02:00 16,8 C 21,7 C 81 % 1018,1 hPa 0,0 l/m 3,0 km/h (1 Bft) O-NO 0,00 h 0,026 mm 0,0 UV-I 0 W/m 13,6 C 16,8 C 5,5 km/h (1 Bft) 97,36 %
15.08.2017 03:00 15,8 C 21,2 C 84 % 1018,0 hPa 0,0 l/m 2,5 km/h (1 Bft) O-NO 0,00 h 0,000 mm 0,0 UV-I 0 W/m 13,1 C 15,8 C 4,3 km/h (1 Bft) 98,37 %
15.08.2017 04:00 15,5 C 21,1 C 84 % 1017,9 hPa 0,0 l/m 3,3 km/h (1 Bft) NO 0,00 h 0,000 mm 0,0 UV-I 0 W/m 12,8 C 15,5 C 5,0 km/h (1 Bft) 95,85 %
15.08.2017 05:00 15,0 C 21,1 C 85 % 1018,0 hPa 0,0 l/m 2,7 km/h (1 Bft) NO 0,00 h 0,000 mm 0,0 UV-I 6 W/m 12,4 C 15,0 C 4,5 km/h (1 Bft) 98,92 %
15.08.2017 06:00 14,7 C 21,1 C 85 % 1018,3 hPa 0,0 l/m 1,9 km/h (1 Bft) O-NO 0,83 h 0,000 mm 0,0 UV-I 54 W/m 12,3 C 14,7 C 3,3 km/h (1 Bft) 98,23 %
15.08.2017 07:00 15,9 C 21,1 C 84 % 1018,7 hPa 0,0 l/m 2,5 km/h (1 Bft) O-NO 1,00 h 0,025 mm 0,5 UV-I 189 W/m 13,2 C 15,9 C 4,2 km/h (1 Bft) 96,45 %
15.08.2017 08:00 17,9 C 21,1 C 78 % 1018,9 hPa 0,0 l/m 6,3 km/h (2 Bft) O-NO 1,00 h 0,102 mm 1,0 UV-I 353 W/m 14,1 C 17,7 C 9,9 km/h (2 Bft) 97,07 %
15.08.2017 09:00 19,6 C 21,2 C 76 % 1018,9 hPa 0,0 l/m 3,7 km/h (1 Bft) NO 1,00 h 0,228 mm 2,2 UV-I 515 W/m 15,2 C 19,6 C 6,8 km/h (2 Bft) 98,52 %
15.08.2017 10:00 21,3 C 21,7 C 73 % 1018,7 hPa 0,0 l/m 2,1 km/h (1 Bft) N-NO 1,00 h 0,305 mm 3,7 UV-I 649 W/m 16,1 C 21,3 C 5,2 km/h (1 Bft) 97,80 %
15.08.2017 11:00 23,0 C 21,7 C 68 % 1018,4 hPa 0,0 l/m 3,4 km/h (1 Bft) NO 1,00 h 0,381 mm 4,9 UV-I 752 W/m 16,8 C 23,0 C 7,3 km/h (2 Bft) 96,73 %
15.08.2017 12:00 24,7 C 22,1 C 63 % 1018,1 hPa 0,0 l/m 4,0 km/h (1 Bft) NO 1,00 h 0,457 mm 5,9 UV-I 811 W/m 17,3 C 24,7 C 8,1 km/h (2 Bft) 98,78 %
15.08.2017 13:00 26,0 C 22,6 C 58 % 1017,8 hPa 0,0 l/m 5,1 km/h (1 Bft) NO 1,00 h 0,534 mm 6,0 UV-I 817 W/m 17,2 C 26,0 C 9,7 km/h (2 Bft) 99,10 %
15.08.2017 14:00 27,2 C 22,8 C 56 % 1017,5 hPa 0,0 l/m 6,0 km/h (2 Bft) O-NO 1,00 h 0,533 mm 5,2 UV-I 767 W/m 17,7 C 27,1 C 10,4 km/h (2 Bft) 96,89 %
15.08.2017 15:00 28,0 C 23,3 C 52 % 1017,2 hPa 0,0 l/m 4,1 km/h (1 Bft) NO 1,00 h 0,534 mm 4,0 UV-I 671 W/m 17,1 C 28,0 C 7,7 km/h (2 Bft) 98,56 %
15.08.2017 16:00 28,7 C 23,3 C 48 % 1016,7 hPa 0,0 l/m 4,3 km/h (1 Bft) NO 1,00 h 0,457 mm 2,6 UV-I 544 W/m 16,7 C 28,6 C 7,8 km/h (2 Bft) 98,14 %
15.08.2017 17:00 28,5 C 23,9 C 48 % 1016,3 hPa 0,0 l/m 5,7 km/h (1 Bft) O-NO 0,87 h 0,406 mm 1,3 UV-I 336 W/m 16,3 C 28,5 C 9,2 km/h (2 Bft) 98,06 %
15.08.2017 18:00 27,5 C 23,9 C 52 % 1016,1 hPa 0,0 l/m 3,9 km/h (1 Bft) O-NO 0,55 h 0,280 mm 0,6 UV-I 155 W/m 16,6 C 27,5 C 6,1 km/h (2 Bft) 97,72 %
15.08.2017 19:00 26,7 C 23,9 C 57 % 1016,1 hPa 0,0 l/m 2,0 km/h (1 Bft) O-NO 0,77 h 0,152 mm 0,0 UV-I 93 W/m 17,5 C 26,7 C 3,8 km/h (1 Bft) 99,09 %
15.08.2017 20:00 24,0 C 23,7 C 67 % 1015,8 hPa 0,0 l/m 3,8 km/h (1 Bft) O-NO 0,03 h 0,076 mm 0,0 UV-I 7 W/m 17,4 C 24,0 C 5,9 km/h (2 Bft) 98,18 %
15.08.2017 21:00 21,9 C 23,3 C 75 % 1015,9 hPa 0,0 l/m 2,4 km/h (1 Bft) O-NO 0,00 h 0,026 mm 0,0 UV-I 0 W/m 17,2 C 21,9 C 3,6 km/h (1 Bft) 97,19 %
15.08.2017 22:00 20,0 C 23,3 C 83 % 1016,4 hPa 0,0 l/m 1,4 km/h (1 Bft) O-NO 0,00 h 0,025 mm 0,0 UV-I 0 W/m 16,9 C 20,0 C 2,6 km/h (1 Bft) 97,71 %
15.08.2017 23:00 19,3 C 23,3 C 85 % 1016,2 hPa 0,0 l/m 1,3 km/h (1 Bft) S 0,00 h 0,000 mm 0,0 UV-I 0 W/m 16,7 C 19,3 C 2,7 km/h (1 Bft) 99,41 %
16.08.2017 00:00 18,4 C 23,3 C 88 % 1016,1 hPa 0,0 l/m 0,1 km/h (0 Bft) N 0,00 h 0,000 mm 0,0 UV-I 0 W/m 16,4 C 18,4 C 0,3 km/h (0 Bft) 98,00 %
16.08.2017 01:00 17,5 C 23,3 C 91 % 1016,2 hPa 0,0 l/m 1,4 km/h (1 Bft) S 0,00 h 0,000 mm 0,0 UV-I 0 W/m 16,0 C 17,5 C 2,5 km/h (1 Bft) 97,23 %
16.08.2017 02:00 17,2 C 23,1 C 92 % 1016,2 hPa 0,0 l/m 1,4 km/h (1 Bft) S 0,00 h 0,000 mm 0,0 UV-I 0 W/m 15,8 C 17,2 C 3,1 km/h (1 Bft) 98,35 %
16.08.2017 03:00 16,7 C 22,8 C 92 % 1016,6 hPa 0,0 l/m 4,1 km/h (1 Bft) S 0,00 h 0,000 mm 0,0 UV-I 0 W/m 15,4 C 16,3 C 6,5 km/h (2 Bft) 99,25 %
16.08.2017 04:00 17,4 C 22,8 C 91 % 1018,3 hPa 0,0 l/m 12,9 km/h (3 Bft) W-SW 0,00 h 0,000 mm 0,0 UV-I 0 W/m 15,9 C 14,7 C 19,4 km/h (3 Bft) 97,41 %
16.08.2017 05:00 18,6 C 22,8 C 85 % 1019,2 hPa 0,0 l/m 11,8 km/h (2 Bft) W-SW 0,00 h 0,025 mm 0,0 UV-I 8 W/m 16,1 C 16,5 C 18,3 km/h (3 Bft) 98,08 %
16.08.2017 06:00 18,5 C 22,8 C 85 % 1019,5 hPa 0,0 l/m 8,0 km/h (2 Bft) W-SW 0,50 h 0,026 mm 0,0 UV-I 41 W/m 15,9 C 17,7 C 12,4 km/h (3 Bft) 97,91 %
16.08.2017 07:00 18,9 C 22,8 C 84 % 1019,9 hPa 0,0 l/m 8,5 km/h (2 Bft) W-SW 0,23 h 0,051 mm 0,0 UV-I 112 W/m 16,1 C 18,1 C 13,3 km/h (3 Bft) 99,78 %
16.08.2017 08:00 18,7 C 22,8 C 85 % 1020,4 hPa 1,4 l/m 6,5 km/h (2 Bft) W-SW 0,00 h 0,076 mm 0,0 UV-I 80 W/m 16,1 C 18,2 C 11,6 km/h (2 Bft) 97,57 %
16.08.2017 09:00 17,9 C 22,8 C 92 % 1020,7 hPa 0,2 l/m 1,3 km/h (1 Bft) W-SW 0,07 h 0,051 mm 1,2 UV-I 178 W/m 16,6 C 17,9 C 3,3 km/h (1 Bft) 97,94 %
16.08.2017 10:00 19,0 C 22,8 C 89 % 1021,0 hPa 0,0 l/m 0,8 km/h (0 Bft) W-NW 0,00 h 0,101 mm 1,8 UV-I 279 W/m 17,1 C 19,0 C 2,8 km/h (1 Bft) 98,12 %
16.08.2017 11:00 20,6 C 22,8 C 84 % 1020,8 hPa 0,0 l/m 2,0 km/h (1 Bft) W 0,77 h 0,153 mm 3,3 UV-I 592 W/m 17,8 C 20,6 C 5,1 km/h (1 Bft) 99,00 %
16.08.2017 12:00 22,0 C 22,8 C 75 % 1020,4 hPa 0,0 l/m 13,3 km/h (3 Bft) W-SW 0,17 h 0,330 mm 3,0 UV-I 411 W/m 17,3 C 20,0 C 20,9 km/h (4 Bft) 97,75 %
16.08.2017 13:00 22,4 C 23,0 C 72 % 1020,3 hPa 0,0 l/m 6,9 km/h (2 Bft) W-SW 0,43 h 0,279 mm 3,4 UV-I 457 W/m 17,1 C 21,9 C 12,0 km/h (2 Bft) 96,37 %
16.08.2017 14:00 23,3 C 23,3 C 68 % 1020,0 hPa 0,0 l/m 6,0 km/h (2 Bft) W 0,90 h 0,305 mm 3,9 UV-I 557 W/m 17,1 C 23,0 C 11,8 km/h (2 Bft) 97,94 %
16.08.2017 15:00 24,0 C 23,3 C 65 % 1019,6 hPa 0,0 l/m 3,9 km/h (1 Bft) NW 0,60 h 0,381 mm 3,1 UV-I 537 W/m 17,0 C 23,9 C 8,1 km/h (2 Bft) 98,73 %
16.08.2017 16:00 24,2 C 23,6 C 63 % 1019,4 hPa 0,0 l/m 2,4 km/h (1 Bft) N-NW 0,77 h 0,356 mm 2,0 UV-I 454 W/m 16,7 C 24,2 C 5,9 km/h (2 Bft) 97,96 %
16.08.2017 17:00 24,6 C 23,9 C 60 % 1019,4 hPa 0,0 l/m 2,7 km/h (1 Bft) NW 0,93 h 0,279 mm 1,2 UV-I 388 W/m 16,4 C 24,6 C 5,8 km/h (2 Bft) 96,45 %
16.08.2017 18:00 24,2 C 23,9 C 61 % 1019,0 hPa 0,0 l/m 0,9 km/h (0 Bft) NW 1,00 h 0,254 mm 0,6 UV-I 207 W/m 16,2 C 24,2 C 3,0 km/h (1 Bft) 99,06 %
16.08.2017 19:00 23,2 C 23,9 C 69 % 1019,1 hPa 0,0 l/m 0,5 km/h (0 Bft) W-SW 0,40 h 0,127 mm 0,0 UV-I 58 W/m 17,1 C 23,2 C 1,4 km/h (1 Bft) 97,87 %
16.08.2017 20:00 20,1 C 23,9 C 82 % 1019,4 hPa 0,0 l/m 0,0 km/h (0 Bft) N 0,03 h 0,051 mm 0,0 UV-I 7 W/m 16,8 C 20,1 C 0,0 km/h (0 Bft) 98,64 %
16.08.2017 21:00 18,7 C 23,7 C 87 % 1019,6 hPa 0,0 l/m 0,0 km/h (0 Bft) N 0,00 h 0,000 mm 0,0 UV-I 0 W/m 16,4 C 18,7 C 0,0 km/h (0 Bft) 96,19 %
16.08.2017 22:00 17,7 C 23,3 C 89 % 1019,6 hPa 0,0 l/m 0,3 km/h (0 Bft) W-SW 0,00 h 0,000 mm 0,0 UV-I 0 W/m 15,8 C 17,7 C 0,7 km/h (0 Bft) 99,50 %
16.08.2017 23:00 17,3 C 23,3 C 91 % 1019,3 hPa 0,0 l/m 0,9 km/h (0 Bft) S-SW 0,00 h 0,000 mm 0,0 UV-I 0 W/m 15,7 C 17,3 C 2,2 km/h (1 Bft) 98,22 %
17.08.2017 00:00 16,4 C 23,3 C 92 % 1019,4 hPa 0,0 l/m 0,4 km/h (0 Bft) S-SW 0,00 h 0,000 mm 0,0 UV-I 0 W/m 15,2 C 16,4 C 0,8 km/h (0 Bft) 97,81 %
17.08.2017 01:00 15,8 C 23,3 C 94 % 1019,4 hPa 0,0 l/m 0,5 km/h (0 Bft) S-SW 0,00 h 0,000 mm 0,0 UV-I 0 W/m 14,8 C 15,8 C 1,1 km/h (1 Bft) 97,32 %
17.08.2017 02:00 15,3 C 23,3 C 94 % 1018,9 hPa 0,0 l/m 0,2 km/h (0 Bft) S-SW 0,00 h 0,000 mm 0,0 UV-I 0 W/m 14,3 C 15,3 C 0,4 km/h (0 Bft) 99,09 %
17.08.2017 03:00 14,9 C 22,9 C 95 % 1018,8 hPa 0,0 l/m 1,4 km/h (1 Bft) O 0,00 h 0,000 mm 0,0 UV-I 0 W/m 14,1 C 14,9 C 2,1 km/h (1 Bft) 96,84 %
17.08.2017 04:00 14,6 C 22,8 C 96 % 1018,7 hPa 0,0 l/m 0,6 km/h (0 Bft) O 0,00 h 0,000 mm 0,0 UV-I 0 W/m 13,9 C 14,6 C 1,1 km/h (1 Bft) 97,20 %
17.08.2017 05:00 14,2 C 22,8 C 96 % 1018,7 hPa 0,0 l/m 1,0 km/h (0 Bft) O-NO 0,00 h 0,000 mm 0,0 UV-I 5 W/m 13,6 C 14,2 C 2,1 km/h (1 Bft) 97,65 %
17.08.2017 06:00 13,9 C 22,8 C 96 % 1018,7 hPa 0,2 l/m 0,0 km/h (0 Bft) N 0,27 h 0,000 mm 0,0 UV-I 34 W/m 13,3 C 13,9 C 0,1 km/h (0 Bft) 99,20 %
17.08.2017 07:00 15,4 C 22,8 C 97 % 1019,0 hPa 0,0 l/m 1,7 km/h (1 Bft) O-NO 0,97 h 0,025 mm 0,4 UV-I 159 W/m 14,8 C 15,4 C 3,3 km/h (1 Bft) 96,01 %
17.08.2017 08:00 17,6 C 22,8 C 92 % 1019,0 hPa 0,0 l/m 3,3 km/h (1 Bft) O-NO 1,00 h 0,077 mm 0,9 UV-I 336 W/m 16,2 C 17,6 C 5,5 km/h (1 Bft) 98,37 %
17.08.2017 09:00 19,5 C 22,8 C 84 % 1019,0 hPa 0,0 l/m 6,1 km/h (2 Bft) NO 1,00 h 0,177 mm 2,0 UV-I 507 W/m 16,7 C 19,3 C 9,6 km/h (2 Bft) 97,88 %
17.08.2017 10:00 21,3 C 22,8 C 78 % 1018,8 hPa 0,0 l/m 8,0 km/h (2 Bft) O 1,00 h 0,305 mm 3,3 UV-I 642 W/m 17,2 C 20,7 C 12,9 km/h (3 Bft) 98,65 %
17.08.2017 11:00 22,9 C 23,3 C 73 % 1018,6 hPa 0,0 l/m 6,7 km/h (2 Bft) O-NO 0,97 h 0,407 mm 4,5 UV-I 720 W/m 17,9 C 22,6 C 12,2 km/h (2 Bft) 95,61 %
17.08.2017 12:00 24,7 C 23,3 C 67 % 1018,1 hPa 0,0 l/m 7,6 km/h (2 Bft) NO 1,00 h 0,457 mm 5,2 UV-I 775 W/m 18,0 C 24,3 C 12,8 km/h (3 Bft) 99,13 %
17.08.2017 13:00 25,7 C 23,9 C 62 % 1017,6 hPa 0,0 l/m 5,3 km/h (1 Bft) O-NO 1,00 h 0,508 mm 5,4 UV-I 790 W/m 17,9 C 25,6 C 10,4 km/h (2 Bft) 97,82 %
17.08.2017 14:00 26,7 C 24,1 C 57 % 1017,2 hPa 0,0 l/m 3,3 km/h (1 Bft) O-NO 1,00 h 0,533 mm 4,9 UV-I 748 W/m 17,5 C 26,6 C 7,1 km/h (2 Bft) 97,82 %
17.08.2017 15:00 27,4 C 24,4 C 55 % 1016,6 hPa 0,0 l/m 4,0 km/h (1 Bft) NO 1,00 h 0,508 mm 3,7 UV-I 640 W/m 17,5 C 27,4 C 8,3 km/h (2 Bft) 97,11 %
17.08.2017 16:00 27,7 C 24,7 C 52 % 1016,2 hPa 0,0 l/m 2,8 km/h (1 Bft) NO 0,93 h 0,432 mm 2,3 UV-I 483 W/m 17,0 C 27,7 C 6,3 km/h (2 Bft) 98,72 %
17.08.2017 17:00 27,6 C 25,0 C 52 % 1015,9 hPa 0,0 l/m 1,7 km/h (1 Bft) N-NO 0,77 h 0,330 mm 1,2 UV-I 325 W/m 16,7 C 27,6 C 3,9 km/h (1 Bft) 97,31 %
17.08.2017 18:00 27,3 C 25,0 C 53 % 1015,7 hPa 0,0 l/m 3,5 km/h (1 Bft) NO 0,57 h 0,229 mm 0,6 UV-I 179 W/m 16,8 C 27,3 C 6,0 km/h (2 Bft) 96,89 %
17.08.2017 19:00 25,0 C 25,0 C 68 % 1015,7 hPa 0,0 l/m 1,0 km/h (0 Bft) O-SO 0,50 h 0,152 mm 0,0 UV-I 60 W/m 18,5 C 25,0 C 1,8 km/h (1 Bft) 99,30 %
17.08.2017 20:00 22,7 C 25,0 C 73 % 1016,1 hPa 0,0 l/m 0,6 km/h (0 Bft) O-SO 0,07 h 0,051 mm 0,0 UV-I 10 W/m 17,7 C 22,7 C 1,1 km/h (1 Bft) 97,27 %
17.08.2017 21:00 21,3 C 24,6 C 79 % 1016,5 hPa 0,0 l/m 0,0 km/h (0 Bft) N 0,00 h 0,000 mm 0,0 UV-I 0 W/m 17,5 C 21,3 C 0,2 km/h (0 Bft) 97,11 %
17.08.2017 22:00 20,3 C 24,4 C 84 % 1016,5 hPa 0,0 l/m 1,4 km/h (1 Bft) O-SO 0,00 h 0,000 mm 0,0 UV-I 0 W/m 17,5 C 20,3 C 3,0 km/h (1 Bft) 97,17 %
17.08.2017 23:00 20,3 C 24,4 C 83 % 1016,5 hPa 0,0 l/m 2,3 km/h (1 Bft) O-SO 0,00 h 0,000 mm 0,0 UV-I 0 W/m 17,2 C 20,3 C 4,2 km/h (1 Bft) 99,20 %
18.08.2017 00:00 19,4 C 24,4 C 85 % 1016,4 hPa 0,0 l/m 2,1 km/h (1 Bft) S-SO 0,00 h 0,000 mm 0,0 UV-I 0 W/m 16,8 C 19,4 C 3,7 km/h (1 Bft) 95,03 %
18.08.2017 01:00 18,8 C 24,4 C 87 % 1016,4 hPa 0,0 l/m 2,0 km/h (1 Bft) S-SO 0,00 h 0,000 mm 0,0 UV-I 0 W/m 16,6 C 18,8 C 3,9 km/h (1 Bft) 96,66 %
18.08.2017 02:00 17,9 C 24,0 C 90 % 1016,3 hPa 0,0 l/m 0,5 km/h (0 Bft) S-SO 0,00 h 0,000 mm 0,0 UV-I 0 W/m 16,2 C 17,9 C 1,3 km/h (1 Bft) 97,64 %
18.08.2017 03:00 17,2 C 23,9 C 92 % 1016,2 hPa 0,0 l/m 0,2 km/h (0 Bft) S-SO 0,00 h 0,000 mm 0,0 UV-I 0 W/m 15,8 C 17,2 C 0,6 km/h (0 Bft) 98,87 %
18.08.2017 04:00 16,8 C 23,9 C 92 % 1016,0 hPa 0,0 l/m 0,0 km/h (0 Bft) N 0,00 h 0,000 mm 0,0 UV-I 0 W/m 15,5 C 16,8 C 0,1 km/h (0 Bft) 97,09 %
18.08.2017 05:00 16,5 C 23,9 C 92 % 1016,1 hPa 0,0 l/m 0,0 km/h (0 Bft) N 0,00 h 0,000 mm 0,0 UV-I 6 W/m 15,1 C 16,5 C 0,0 km/h (0 Bft) 97,75 %
18.08.2017 06:00 16,1 C 23,9 C 93 % 1016,4 hPa 0,0 l/m 0,0 km/h (0 Bft) N 0,50 h 0,000 mm 0,0 UV-I 37 W/m 15,0 C 16,1 C 0,2 km/h (0 Bft) 97,59 %
18.08.2017 07:00 17,4 C 23,9 C 92 % 1016,5 hPa 0,0 l/m 0,1 km/h (0 Bft) S-SO 0,73 h 0,025 mm 0,5 UV-I 145 W/m 16,2 C 17,4 C 0,3 km/h (0 Bft) 99,43 %
18.08.2017 08:00 20,0 C 23,9 C 86 % 1016,5 hPa 0,0 l/m 0,9 km/h (0 Bft) N-NO 1,00 h 0,077 mm 1,0 UV-I 320 W/m 17,6 C 20,0 C 2,5 km/h (1 Bft) 95,78 %
18.08.2017 09:00 21,7 C 23,9 C 82 % 1016,2 hPa 0,0 l/m 1,9 km/h (1 Bft) N-NO 1,00 h 0,177 mm 1,9 UV-I 431 W/m 18,4 C 21,7 C 5,1 km/h (1 Bft) 98,58 %
18.08.2017 10:00 23,3 C 23,9 C 78 % 1015,8 hPa 0,0 l/m 2,3 km/h (1 Bft) N-NO 1,00 h 0,254 mm 3,4 UV-I 598 W/m 19,3 C 23,3 C 5,6 km/h (1 Bft) 98,16 %
18.08.2017 11:00 25,1 C 24,2 C 70 % 1015,2 hPa 0,0 l/m 5,8 km/h (2 Bft) NO 1,00 h 0,381 mm 4,8 UV-I 717 W/m 19,1 C 25,0 C 9,8 km/h (2 Bft) 99,24 %
18.08.2017 12:00 26,7 C 24,4 C 65 % 1014,4 hPa 0,0 l/m 8,7 km/h (2 Bft) NO 1,00 h 0,483 mm 5,7 UV-I 792 W/m 19,5 C 26,2 C 14,4 km/h (3 Bft) 95,93 %
18.08.2017 13:00 28,1 C 25,0 C 59 % 1013,5 hPa 0,0 l/m 10,7 km/h (2 Bft) NO 1,00 h 0,559 mm 5,9 UV-I 795 W/m 19,2 C 27,5 C 17,0 km/h (3 Bft) 99,15 %
18.08.2017 14:00 29,3 C 25,1 C 55 % 1012,7 hPa 0,0 l/m 7,1 km/h (2 Bft) NO 1,00 h 0,584 mm 5,1 UV-I 749 W/m 19,2 C 29,2 C 12,7 km/h (3 Bft) 97,44 %
18.08.2017 15:00 30,1 C 25,6 C 51 % 1011,9 hPa 0,0 l/m 6,9 km/h (2 Bft) NO 1,00 h 0,559 mm 3,9 UV-I 649 W/m 18,7 C 30,0 C 12,6 km/h (3 Bft) 97,73 %
18.08.2017 16:00 30,4 C 25,7 C 50 % 1011,3 hPa 0,0 l/m 6,4 km/h (2 Bft) NO 1,00 h 0,482 mm 2,4 UV-I 509 W/m 18,6 C 30,3 C 11,2 km/h (2 Bft) 98,02 %
18.08.2017 17:00 30,4 C 26,1 C 49 % 1010,5 hPa 0,0 l/m 6,8 km/h (2 Bft) NO 1,00 h 0,407 mm 1,2 UV-I 348 W/m 18,5 C 30,3 C 11,2 km/h (2 Bft) 98,58 %
18.08.2017 18:00 29,9 C 26,1 C 51 % 1009,6 hPa 0,0 l/m 6,3 km/h (2 Bft) O-NO 1,00 h 0,305 mm 0,6 UV-I 189 W/m 18,6 C 29,9 C 10,4 km/h (2 Bft) 97,00 %
18.08.2017 19:00 28,5 C 26,1 C 59 % 1008,8 hPa 0,0 l/m 3,7 km/h (1 Bft) O-NO 0,77 h 0,177 mm 0,0 UV-I 58 W/m 19,6 C 28,5 C 5,8 km/h (2 Bft) 98,85 %
18.08.2017 20:00 26,4 C 26,0 C 67 % 1008,1 hPa 0,0 l/m 2,4 km/h (1 Bft) O-NO 0,03 h 0,077 mm 0,0 UV-I 6 W/m 19,7 C 26,4 C 4,1 km/h (1 Bft) 98,09 %
18.08.2017 21:00 25,5 C 25,6 C 68 % 1007,6 hPa 0,0 l/m 5,8 km/h (2 Bft) O-SO 0,00 h 0,025 mm 0,0 UV-I 0 W/m 19,2 C 25,4 C 9,1 km/h (2 Bft) 96,30 %
18.08.2017 22:00 23,3 C 25,6 C 80 % 1008,2 hPa 0,0 l/m 0,7 km/h (0 Bft) SO 0,00 h 0,025 mm 0,0 UV-I 0 W/m 19,6 C 23,3 C 2,1 km/h (1 Bft) 98,51 %
18.08.2017 23:00 20,6 C 25,6 C 76 % 1013,4 hPa 0,0 l/m 24,1 km/h (4 Bft) W-SW 0,00 h 0,000 mm 0,0 UV-I 0 W/m 16,2 C 16,7 C 40,7 km/h (6 Bft) 98,58 %
19.08.2017 00:00 18,7 C 25,1 C 80 % 1015,7 hPa 0,0 l/m 16,7 km/h (3 Bft) W-SW 0,00 h 0,000 mm 0,0 UV-I 0 W/m 15,3 C 15,3 C 26,4 km/h (4 Bft) 98,79 %
19.08.2017 01:00 18,7 C 25,0 C 80 % 1015,8 hPa 0,0 l/m 13,5 km/h (3 Bft) W-SW 0,00 h 0,051 mm 0,0 UV-I 0 W/m 15,2 C 16,1 C 21,0 km/h (4 Bft) 96,09 %
19.08.2017 02:00 18,5 C 25,0 C 81 % 1015,6 hPa 0,0 l/m 13,7 km/h (3 Bft) W-SW 0,00 h 0,051 mm 0,0 UV-I 0 W/m 15,2 C 15,8 C 21,1 km/h (4 Bft) 98,69 %
19.08.2017 03:00 18,0 C 24,9 C 85 % 1015,5 hPa 0,4 l/m 10,5 km/h (2 Bft) SW 0,00 h 0,050 mm 0,0 UV-I 0 W/m 15,5 C 16,4 C 16,9 km/h (3 Bft) 98,26 %
19.08.2017 04:00 17,1 C 24,4 C 91 % 1015,2 hPa 0,8 l/m 10,1 km/h (2 Bft) W-SW 0,00 h 0,026 mm 0,0 UV-I 0 W/m 15,6 C 15,5 C 15,7 km/h (3 Bft) 97,70 %
19.08.2017 05:00 16,6 C 24,4 C 93 % 1015,4 hPa 2,0 l/m 9,2 km/h (2 Bft) SW 0,00 h 0,025 mm 0,0 UV-I 0 W/m 15,5 C 15,3 C 15,0 km/h (3 Bft) 95,88 %
19.08.2017 06:00 16,0 C 24,4 C 93 % 1015,7 hPa 1,2 l/m 7,1 km/h (2 Bft) SW 0,00 h 0,000 mm 0,0 UV-I 10 W/m 14,9 C 15,4 C 11,9 km/h (2 Bft) 97,86 %
19.08.2017 07:00 16,0 C 23,9 C 94 % 1016,3 hPa 1,0 l/m 5,5 km/h (1 Bft) SW 0,00 h 0,000 mm 0,0 UV-I 18 W/m 15,1 C 16,0 C 9,4 km/h (2 Bft) 98,76 %
19.08.2017 08:00 16,1 C 23,9 C 95 % 1016,6 hPa 1,4 l/m 3,5 km/h (1 Bft) S-SW 0,00 h 0,025 mm 0,0 UV-I 29 W/m 15,3 C 16,1 C 7,6 km/h (2 Bft) 97,59 %
19.08.2017 09:00 16,2 C 23,9 C 95 % 1017,5 hPa 3,8 l/m 6,0 km/h (2 Bft) SW 0,00 h 0,025 mm 0,0 UV-I 35 W/m 15,4 C 16,0 C 11,7 km/h (2 Bft) 98,98 %
19.08.2017 10:00 16,1 C 23,9 C 95 % 1017,6 hPa 2,6 l/m 2,5 km/h (1 Bft) SW 0,00 h 0,025 mm 0,7 UV-I 75 W/m 15,3 C 16,1 C 5,9 km/h (2 Bft) 98,32 %
19.08.2017 11:00 16,6 C 23,9 C 93 % 1017,4 hPa 0,2 l/m 2,0 km/h (1 Bft) W-SW 0,00 h 0,051 mm 1,0 UV-I 152 W/m 15,5 C 16,6 C 4,8 km/h (1 Bft) 99,12 %
19.08.2017 12:00 16,9 C 23,9 C 92 % 1017,7 hPa 0,0 l/m 3,8 km/h (1 Bft) SW 0,00 h 0,077 mm 1,0 UV-I 138 W/m 15,6 C 16,9 C 6,6 km/h (2 Bft) 97,54 %
19.08.2017 13:00 16,3 C 23,9 C 93 % 1018,1 hPa 2,6 l/m 4,8 km/h (1 Bft) S-SW 0,00 h 0,077 mm 0,7 UV-I 99 W/m 15,1 C 16,1 C 8,0 km/h (2 Bft) 97,05 %
19.08.2017 14:00 16,8 C 23,9 C 94 % 1017,8 hPa 0,0 l/m 2,7 km/h (1 Bft) SO 0,00 h 0,050 mm 1,4 UV-I 205 W/m 15,8 C 16,8 C 6,0 km/h (2 Bft) 99,32 %
19.08.2017 15:00 17,2 C 23,8 C 93 % 1018,2 hPa 0,6 l/m 3,9 km/h (1 Bft) S-SW 0,00 h 0,102 mm 0,8 UV-I 128 W/m 16,0 C 17,1 C 6,8 km/h (2 Bft) 98,38 %
19.08.2017 16:00 17,3 C 23,4 C 93 % 1018,1 hPa 0,2 l/m 2,5 km/h (1 Bft) SW 0,00 h 0,076 mm 0,7 UV-I 104 W/m 16,2 C 17,3 C 4,6 km/h (1 Bft) 97,20 %
19.08.2017 17:00 16,7 C 23,3 C 93 % 1018,6 hPa 2,2 l/m 4,1 km/h (1 Bft) SW 0,00 h 0,051 mm 0,0 UV-I 26 W/m 15,7 C 16,6 C 7,3 km/h (2 Bft) 97,37 %
19.08.2017 18:00 16,3 C 23,3 C 95 % 1018,6 hPa 1,0 l/m 4,9 km/h (1 Bft) SW 0,00 h 0,025 mm 0,0 UV-I 21 W/m 15,4 C 16,1 C 8,2 km/h (2 Bft) 99,05 %
19.08.2017 19:00 15,8 C 23,3 C 95 % 1018,9 hPa 1,2 l/m 6,1 km/h (2 Bft) S-SW 0,00 h 0,026 mm 0,0 UV-I 7 W/m 15,0 C 15,5 C 11,4 km/h (2 Bft) 97,59 %
19.08.2017 20:00 15,3 C 23,3 C 95 % 1019,3 hPa 0,0 l/m 2,9 km/h (1 Bft) S 0,00 h 0,000 mm 0,0 UV-I 9 W/m 14,4 C 15,3 C 6,0 km/h (2 Bft) 97,38 %
19.08.2017 21:00 14,9 C 23,1 C 94 % 1019,5 hPa 0,0 l/m 1,5 km/h (1 Bft) S 0,00 h 0,000 mm 0,0 UV-I 0 W/m 13,9 C 14,9 C 4,1 km/h (1 Bft) 98,37 %
19.08.2017 22:00 14,7 C 22,8 C 94 % 1019,4 hPa 0,0 l/m 0,7 km/h (0 Bft) S 0,00 h 0,000 mm 0,0 UV-I 0 W/m 13,8 C 14,7 C 1,9 km/h (1 Bft) 99,63 %
19.08.2017 23:00 14,5 C 22,8 C 95 % 1019,5 hPa 0,0 l/m 0,8 km/h (0 Bft) S 0,00 h 0,000 mm 0,0 UV-I 0 W/m 13,7 C 14,5 C 2,7 km/h (1 Bft) 96,78 %
20.08.2017 00:00 14,5 C 22,8 C 95 % 1019,3 hPa 0,0 l/m 1,2 km/h (1 Bft) S-SW 0,00 h 0,000 mm 0,0 UV-I 0 W/m 13,8 C 14,5 C 2,7 km/h (1 Bft) 98,13 %
20.08.2017 01:00 14,5 C 22,8 C 96 % 1019,4 hPa 0,0 l/m 2,8 km/h (1 Bft) S-SW 0,00 h 0,000 mm 0,0 UV-I 0 W/m 13,8 C 14,5 C 5,3 km/h (1 Bft) 97,78 %
20.08.2017 02:00 14,3 C 22,8 C 96 % 1019,5 hPa 0,0 l/m 2,2 km/h (1 Bft) SW 0,00 h 0,000 mm 0,0 UV-I 0 W/m 13,7 C 14,3 C 3,7 km/h (1 Bft) 99,46 %
20.08.2017 03:00 14,3 C 22,6 C 96 % 1019,2 hPa 0,0 l/m 4,6 km/h (1 Bft) W-SW 0,00 h 0,000 mm 0,0 UV-I 0 W/m 13,7 C 14,3 C 7,8 km/h (2 Bft) 96,40 %
20.08.2017 04:00 14,2 C 22,2 C 96 % 1019,2 hPa 0,0 l/m 4,2 km/h (1 Bft) SW 0,00 h 0,000 mm 0,0 UV-I 0 W/m 13,5 C 14,2 C 6,2 km/h (2 Bft) 99,43 %
20.08.2017 05:00 14,0 C 22,2 C 96 % 1019,2 hPa 0,0 l/m 6,9 km/h (2 Bft) SW 0,00 h 0,000 mm 0,0 UV-I 3 W/m 13,4 C 13,6 C 10,3 km/h (2 Bft) 98,42 %
20.08.2017 06:00 13,8 C 22,2 C 96 % 1019,6 hPa 0,2 l/m 6,4 km/h (2 Bft) W-SW 0,07 h 0,000 mm 0,0 UV-I 21 W/m 13,2 C 13,6 C 10,2 km/h (2 Bft) 98,54 %
20.08.2017 07:00 14,4 C 22,2 C 95 % 1020,1 hPa 0,0 l/m 5,6 km/h (1 Bft) W-SW 0,00 h 0,025 mm 0,0 UV-I 75 W/m 13,7 C 14,4 C 8,9 km/h (2 Bft) 96,53 %
20.08.2017 08:00 15,3 C 22,2 C 93 % 1020,5 hPa 0,0 l/m 9,3 km/h (2 Bft) W-SW 0,67 h 0,051 mm 0,7 UV-I 267 W/m 14,2 C 13,9 C 15,1 km/h (3 Bft) 99,12 %
20.08.2017 09:00 15,2 C 22,2 C 92 % 1021,0 hPa 0,4 l/m 9,9 km/h (2 Bft) W-SW 0,00 h 0,153 mm 0,6 UV-I 119 W/m 14,0 C 13,5 C 16,4 km/h (3 Bft) 97,88 %
20.08.2017 10:00 15,7 C 22,2 C 89 % 1021,4 hPa 0,0 l/m 13,8 km/h (3 Bft) W-SW 0,17 h 0,076 mm 1,6 UV-I 322 W/m 14,0 C 12,5 C 21,4 km/h (4 Bft) 97,70 %
20.08.2017 11:00 17,2 C 22,2 C 81 % 1021,6 hPa 0,0 l/m 13,9 km/h (3 Bft) W-SW 0,80 h 0,203 mm 3,4 UV-I 697 W/m 13,8 C 14,2 C 22,0 km/h (4 Bft) 97,54 %
20.08.2017 12:00 18,5 C 22,2 C 71 % 1021,2 hPa 0,0 l/m 14,4 km/h (3 Bft) SW 0,67 h 0,406 mm 3,9 UV-I 677 W/m 13,1 C 15,7 C 22,3 km/h (4 Bft) 99,62 %
20.08.2017 13:00 18,0 C 22,5 C 70 % 1021,2 hPa 0,4 l/m 13,2 km/h (3 Bft) W-SW 0,27 h 0,432 mm 2,1 UV-I 341 W/m 12,4 C 15,4 C 21,3 km/h (4 Bft) 97,63 %
20.08.2017 14:00 15,6 C 22,2 C 79 % 1021,5 hPa 0,2 l/m 10,0 km/h (2 Bft) S-SW 0,10 h 0,229 mm 1,9 UV-I 303 W/m 11,9 C 13,8 C 15,5 km/h (3 Bft) 98,59 %
20.08.2017 15:00 18,1 C 22,6 C 73 % 1021,3 hPa 0,0 l/m 8,9 km/h (2 Bft) SW 0,52 h 0,178 mm 2,2 UV-I 501 W/m 13,2 C 17,0 C 14,4 km/h (3 Bft) 95,84 %
20.08.2017 16:00 18,8 C 22,8 C 72 % 1021,1 hPa 0,0 l/m 9,6 km/h (2 Bft) S-SW 0,53 h 0,304 mm 1,6 UV-I 384 W/m 13,6 C 17,6 C 15,4 km/h (3 Bft) 99,48 %
20.08.2017 17:00 19,8 C 22,8 C 62 % 1021,1 hPa 0,0 l/m 8,9 km/h (2 Bft) W-SW 1,00 h 0,254 mm 1,0 UV-I 369 W/m 12,3 C 18,9 C 14,7 km/h (3 Bft) 98,56 %
20.08.2017 18:00 19,2 C 22,8 C 58 % 1021,2 hPa 0,0 l/m 6,6 km/h (2 Bft) W-SW 0,60 h 0,254 mm 0,5 UV-I 144 W/m 10,6 C 18,9 C 11,5 km/h (2 Bft) 99,41 %
20.08.2017 19:00 17,8 C 22,8 C 71 % 1021,4 hPa 0,0 l/m 4,0 km/h (1 Bft) SW 0,03 h 0,127 mm 0,0 UV-I 40 W/m 12,3 C 17,7 C 6,7 km/h (2 Bft) 96,96 %
20.08.2017 20:00 15,6 C 22,3 C 85 % 1021,7 hPa 0,0 l/m 1,4 km/h (1 Bft) S-SW 0,00 h 0,051 mm 0,0 UV-I 5 W/m 13,0 C 15,6 C 3,5 km/h (1 Bft) 97,79 %
20.08.2017 21:00 14,1 C 22,2 C 89 % 1021,9 hPa 0,0 l/m 2,3 km/h (1 Bft) S-SW 0,00 h 0,000 mm 0,0 UV-I 0 W/m 12,3 C 14,1 C 4,1 km/h (1 Bft) 98,53 %
20.08.2017 22:00 13,6 C 22,2 C 89 % 1022,1 hPa 0,0 l/m 4,8 km/h (1 Bft) S-SW 0,00 h 0,000 mm 0,0 UV-I 0 W/m 11,7 C 13,6 C 7,6 km/h (2 Bft) 98,89 %
20.08.2017 23:00 13,2 C 22,2 C 90 % 1022,3 hPa 0,0 l/m 5,1 km/h (1 Bft) S-SW 0,00 h 0,000 mm 0,0 UV-I 0 W/m 11,5 C 13,2 C 8,2 km/h (2 Bft) 96,17 %
Min-Datum _ 14.08.17 14.08.17 14.08.17 18.08.17 - 14.08.17 - - - - - 20.08.17 20.08.17 14.08.17 18.08.17
_ Min-Zeit 06:06 02:04 17:58 21:18 - 02:22 - - - - - 18:10 14:04 02:22 00:02
Minimum _ 11,3 C 20,0 C 40 % 1007,5 hPa - 0,0 km/h (0 Bft) - - - - - 9,8 C 10,6 C 0,0 km/h (0 Bft) 9,52 %
Max-Datum _ 18.08.17 18.08.17 14.08.17 20.08.17 19.08.17 18.08.17 - 15.08.17 14.08.17 15.08.17 20.08.17 18.08.17 18.08.17 18.08.17 14.08.17
_ Max-Zeit 16:28 16:44 06:54 23:12 09:10 23:10 - 11:39 14:02 12:52 13:12 13:18 16:26 23:16 00:00
Maximum _ 30,7 C 26,1 C 97 % 1022,4 hPa 3,8 l/m 46,8 km/h
W-SW (6 Bft)
- 0,15 h 0,610 mm 6,1 UV-I 1027 W/m 20,4 C 30,6 C 74,0 km/h
W-SW (8 Bft)
100,00 %
Durchschnitt _ 19,6 C 23,1 C 79 % 1018,0 hPa #24,2 l/m 5,0 km/h (1 Bft) O-NO #63:54 h #24,993 mm 2,6 UV-I 325 W/m 15,5 C 19,1 C 8,4 km/h (2 Bft) 97,95 %